Weather reports worldwide

Advertisment
Chamonix, France (7469): temperature & dewpoint: 06.11.2019 16:00:00 - 12.11.2019 16:00:00 (CET)Chamonix, France (7469): wind speed & gusts: 06.11.2019 16:00:00 - 12.11.2019 16:00:00 (CET)Chamonix, France (7469): wind direction: 06.11.2019 16:00:00 - 12.11.2019 16:00:00 (CET)Chamonix, France (7469): precipitation: 06.11.2019 16:00:00 - 12.11.2019 16:00:00 (CET)
Date & Time tt [°C] td [°C] ff [km/h] ff [kn] fx [km/h] fx [kn] dd rr [mm]
12.11.2019 16:00:00 6,0 -5,7 8 4 18 10 WSW 0,0
12.11.2019 15:00:00 7,0 -5,1 9 5 21 11 S 0,0
12.11.2019 14:00:00 6,3 -5,1 8 4 16 9 SSW 0,0
12.11.2019 13:00:00 5,7 -3,7 4 2 13 7 ESE -
12.11.2019 12:00:00 3,8 -1,6 4 2 9 5 ESE 0,0
12.11.2019 11:00:00 0,4 -0,3 2 1 5 3 ENE 0,0
12.11.2019 10:00:00 0,5 -0,5 2 1 8 4 W 0,0
12.11.2019 09:00:00 0,7 -0,2 4 2 11 6 ESE 0,0
12.11.2019 08:00:00 0,6 0,0 4 2 9 5 SSW 0,0
12.11.2019 07:00:00 0,6 0,2 2 1 15 8 S -
12.11.2019 06:00:00 0,6 0,2 0 0 8 4 N 0,0
12.11.2019 05:00:00 0,5 0,1 0 0 5 3 N 0,0
12.11.2019 04:00:00 0,4 0,0 0 0 5 3 N 0,0
12.11.2019 03:00:00 0,4 -0,2 0 0 5 3 N 0,0
12.11.2019 02:00:00 0,8 0,2 0 0 8 4 N 0,0
12.11.2019 01:00:00 0,6 0,2 0 0 8 4 N -
12.11.2019 00:00:00 0,6 0,2 0 0 4 2 N 0,0
11.11.2019 23:00:00 0,9 0,5 2 1 9 5 SSW 0,0
11.11.2019 22:00:00 0,3 -0,1 0 0 8 4 N 0,0
11.11.2019 21:00:00 0,2 -0,4 0 0 8 4 N 0,0
11.11.2019 20:00:00 0,8 0,1 4 2 9 5 N 0,0
11.11.2019 19:00:00 1,4 0,5 2 1 8 4 ESE -
11.11.2019 18:00:00 1,8 0,0 0 0 21 11 N 0,0
11.11.2019 17:00:00 2,8 0,0 5 3 18 10 S 0,0
11.11.2019 16:00:00 4,8 1,1 2 1 8 4 E 0,0
11.11.2019 15:00:00 6,4 1,1 2 1 8 4 SSE 0,0
11.11.2019 14:00:00 6,9 -0,6 4 2 15 8 SSE 0,0
11.11.2019 13:00:00 5,4 -0,2 4 2 16 9 S -
11.11.2019 12:00:00 4,6 1,3 2 1 9 5 ESE 0,0
11.11.2019 11:00:00 -1,0 -1,8 4 2 13 7 SSW 0,0
11.11.2019 10:00:00 -2,5 -3,1 2 1 9 5 SE 0,0
11.11.2019 09:00:00 -3,0 -3,5 2 1 9 5 NE 0,0
11.11.2019 08:00:00 -3,4 -4,1 4 2 9 5 NE 0,0
11.11.2019 07:00:00 -3,0 -3,5 2 1 9 5 SSW -
11.11.2019 06:00:00 -3,7 -4,2 2 1 9 5 NW 0,0
11.11.2019 05:00:00 -4,0 -4,7 2 1 8 4 NE 0,0
11.11.2019 04:00:00 -3,8 -4,5 0 0 8 4 N 0,0
11.11.2019 03:00:00 -3,3 -4,0 0 0 9 5 N 0,0
11.11.2019 02:00:00 -2,9 -3,6 4 2 9 5 N 0,0
11.11.2019 01:00:00 -2,3 -2,9 4 2 13 7 SSE -
11.11.2019 00:00:00 -2,2 -2,8 2 1 11 6 SSW 0,0
10.11.2019 23:00:00 -2,3 -2,7 4 2 9 5 S 0,0
10.11.2019 22:00:00 -2,4 -2,8 2 1 8 4 E 0,0
10.11.2019 21:00:00 -2,1 -2,7 0 0 8 4 N 0,0
10.11.2019 20:00:00 -1,6 -2,2 4 2 8 4 NNE 0,0
10.11.2019 19:00:00 -1,5 -2,2 2 1 5 3 E -
10.11.2019 18:00:00 -1,1 -2,1 2 1 8 4 NE 0,0
10.11.2019 17:00:00 1,0 -1,4 2 1 15 8 ENE 0,0
10.11.2019 16:00:00 6,0 -1,0 2 1 16 9 WNW 0,0
10.11.2019 15:00:00 5,5 -2,6 5 3 15 8 WSW 0,0
10.11.2019 14:00:00 5,2 -3,6 5 3 16 9 S 0,0
10.11.2019 13:00:00 6,2 -2,2 4 2 16 9 S -
10.11.2019 12:00:00 3,2 -2,5 0 0 8 4 N 0,0
10.11.2019 11:00:00 0,2 -0,8 0 0 5 3 N 0,0
10.11.2019 10:00:00 -0,9 -1,5 0 0 5 3 N 0,0
10.11.2019 09:00:00 -2,9 -3,4 2 1 8 4 NNW 0,0
10.11.2019 08:00:00 -2,7 -3,2 2 1 8 4 N 0,0
10.11.2019 07:00:00 -3,1 -3,6 2 1 5 3 ESE -
10.11.2019 06:00:00 -3,2 -3,9 4 2 8 4 N 0,0
10.11.2019 05:00:00 -3,2 -3,7 2 1 8 4 WNW 0,0
10.11.2019 04:00:00 -3,6 -4,1 2 1 9 5 W 0,0
10.11.2019 03:00:00 -4,0 -4,7 2 1 9 5 NE 0,0
10.11.2019 02:00:00 -3,9 -4,6 0 0 8 4 N 0,0
10.11.2019 01:00:00 -3,5 -4,2 4 2 11 6 NE -
10.11.2019 00:00:00 -3,0 -3,7 2 1 5 3 NE 0,0
09.11.2019 23:00:00 -2,6 -3,2 2 1 8 4 NNW 0,0
09.11.2019 22:00:00 -2,4 -3,0 2 1 5 3 WSW 0,0
09.11.2019 21:00:00 -2,2 -2,6 2 1 11 6 SSE 0,0
09.11.2019 20:00:00 -1,9 -2,5 0 0 5 3 N 0,0
09.11.2019 19:00:00 -1,5 -2,1 2 1 5 3 ENE -
09.11.2019 18:00:00 -1,0 -1,8 2 1 5 3 N 0,0
09.11.2019 17:00:00 0,9 0,0 2 1 8 4 NE 0,0
09.11.2019 16:00:00 1,5 0,0 0 0 9 5 N 0,0
09.11.2019 15:00:00 3,8 -1,4 4 2 18 10 S 0,0
09.11.2019 14:00:00 6,1 1,2 4 2 9 5 E 0,0
09.11.2019 13:00:00 6,4 -1,5 4 2 9 5 SSE -
09.11.2019 12:00:00 3,6 -0,1 0 0 9 5 N 0,0
09.11.2019 11:00:00 -0,6 -1,2 2 1 9 5 SSE 0,0
09.11.2019 10:00:00 -1,9 -2,5 4 2 8 4 NNE 0,0
09.11.2019 09:00:00 -3,4 -3,9 4 2 8 4 NNE 0,0
09.11.2019 08:00:00 -3,7 -4,2 2 1 5 3 N 0,0
09.11.2019 07:00:00 -3,8 -4,3 2 1 5 3 E -
09.11.2019 06:00:00 -3,4 -3,9 2 1 9 5 ENE 0,0
09.11.2019 05:00:00 -3,0 -3,4 4 2 9 5 NNE 0,0
09.11.2019 04:00:00 -2,6 -3,0 4 2 8 4 E 0,0
09.11.2019 03:00:00 -2,5 -2,8 2 1 5 3 ENE 0,0
09.11.2019 02:00:00 -2,3 -2,6 4 2 8 4 N 0,0
09.11.2019 01:00:00 -2,0 -2,3 0 0 4 2 N -
09.11.2019 00:00:00 -1,7 -2,0 0 0 5 3 N 0,0
08.11.2019 23:00:00 -1,3 -1,6 2 1 8 4 NNE 0,0
08.11.2019 22:00:00 -1,0 -1,4 0 0 8 4 N 0,0
08.11.2019 21:00:00 -0,1 -0,5 2 1 8 4 NE 0,0
08.11.2019 20:00:00 0,7 0,4 2 1 5 3 E 0,0
08.11.2019 19:00:00 0,2 -0,2 2 1 5 3 NE -
08.11.2019 18:00:00 0,2 -0,5 0 0 4 2 N 0,0
08.11.2019 17:00:00 1,6 0,7 2 1 8 4 NNE 0,0
08.11.2019 16:00:00 3,0 1,2 0 0 18 10 N 0,0
08.11.2019 15:00:00 4,4 1,2 5 3 16 9 SW 0,0
08.11.2019 14:00:00 4,1 1,3 2 1 9 5 SSW 0,0
08.11.2019 13:00:00 2,8 0,8 2 1 9 5 W -
08.11.2019 12:00:00 2,8 1,0 4 2 8 4 NW 0,0
08.11.2019 11:00:00 1,6 1,0 0 0 4 2 N 0,0
08.11.2019 10:00:00 0,9 0,6 0 0 4 2 N 0,0
08.11.2019 09:00:00 0,3 0,0 0 0 2 1 N 2,0
08.11.2019 08:00:00 0,1 -0,2 0 0 4 2 N 1,0
08.11.2019 07:00:00 0,1 -0,2 0 0 4 2 N -
08.11.2019 06:00:00 0,1 -0,2 0 0 4 2 N 0,6
08.11.2019 05:00:00 0,1 -0,2 0 0 4 2 N 0,4
08.11.2019 04:00:00 0,2 -0,1 0 0 4 2 N 0,2
08.11.2019 03:00:00 0,1 -0,2 2 1 8 4 NE 0,4
08.11.2019 02:00:00 0,2 -0,1 0 0 8 4 N 0,0
08.11.2019 01:00:00 0,2 -0,1 0 0 8 4 N -
08.11.2019 00:00:00 0,2 -0,1 0 0 4 2 N 1,0
07.11.2019 23:00:00 0,1 -0,2 0 0 4 2 N 1,0
07.11.2019 22:00:00 0,2 -0,2 0 0 5 3 N 1,0
07.11.2019 21:00:00 0,2 -0,2 0 0 5 3 N 2,0
07.11.2019 20:00:00 0,5 -0,2 0 0 8 4 N 2,0
07.11.2019 19:00:00 1,8 0,9 0 0 5 3 N -
07.11.2019 18:00:00 3,0 2,4 0 0 8 4 N 1,0
07.11.2019 17:00:00 3,2 2,6 2 1 9 5 N 0,4
07.11.2019 16:00:00 3,4 2,5 2 1 4 2 NNE 0,2
07.11.2019 15:00:00 3,4 2,4 2 1 5 3 NNW 0,2
07.11.2019 14:00:00 3,3 1,7 2 1 9 5 NNW 0,0
07.11.2019 13:00:00 2,6 1,3 2 1 9 5 W -
07.11.2019 12:00:00 2,5 1,8 2 1 8 4 SW 0,0
07.11.2019 11:00:00 1,6 1,3 2 1 8 4 SW 0,4
07.11.2019 10:00:00 1,0 0,7 4 2 9 5 NE 0,0
07.11.2019 09:00:00 0,6 0,5 2 1 9 5 E 0,0
07.11.2019 08:00:00 -0,3 -0,6 4 2 9 5 NE 0,0
07.11.2019 07:00:00 -0,8 -1,1 0 0 9 5 N -
07.11.2019 06:00:00 -1,1 -1,4 2 1 8 4 E 0,0
07.11.2019 05:00:00 -0,9 -1,2 2 1 13 7 E 0,0
07.11.2019 04:00:00 -0,7 -1,0 4 2 9 5 NW 0,0
07.11.2019 03:00:00 -0,4 -0,7 0 0 5 3 N 0,0
07.11.2019 02:00:00 -0,2 -0,6 4 2 8 4 N 0,0
07.11.2019 01:00:00 1,2 0,8 0 0 8 4 N -
07.11.2019 00:00:00 1,5 1,1 2 1 8 4 NW 0,0
06.11.2019 23:00:00 1,6 1,2 4 2 5 3 NNW 0,0
06.11.2019 22:00:00 2,2 1,8 2 1 5 3 E 0,0
06.11.2019 21:00:00 2,9 2,5 2 1 5 3 NNW 0,0
06.11.2019 20:00:00 2,8 2,4 0 0 5 3 N 0,0
06.11.2019 19:00:00 2,5 1,9 0 0 5 3 N -
06.11.2019 18:00:00 2,7 1,7 2 1 15 8 N 0,0
06.11.2019 17:00:00 4,5 2,2 8 4 13 7 W 0,0
06.11.2019 16:00:00 5,2 2,4 5 3 21 11 SW 0,0

tt = temperature
td = dewpoint
ff = wind speed
fx = gusts
dd = wind direction
rr = precipitation

Next stations